CheckWX is a tool to help pilots better visualize weather data.  It is not intended as a substitute for an official pre-flight weather briefing.

02:49:22 UTC

KSNS METAR
Salinas Municipal Airport
Salinas, California, USA
Current

56 mins ago

KSNS 230153Z 29009KT 10SM CLR 11/M01 A3015 RMK AO2 SLP221 T01111006
Observed
Feb-23 @ 01:53 UTC
Wind
  • 290° at 9 KTS
Visibility
10 SM
Flight Rules
VFR
Cloud Levels
  • Clear skies
Temperature
11°C / 52°F
Dewpoint
-1°C / 30°F
Humidity
44%
Altimeter
30.15" Hg
Pressure
1022.1 hPa
Previous

2 hours ago

KSNS 230053Z 29008KT 10SM CLR 12/M02 A3013 RMK AO2 SLP214 T01221017
Observed
Feb-23 @ 00:53 UTC
Wind
  • 290° at 8 KTS
Visibility
10 SM
Flight Rules
VFR
Cloud Levels
  • Clear skies
Temperature
12°C / 54°F
Dewpoint
-2°C / 28°F
Humidity
38%
Altimeter
30.13" Hg
Pressure
1021.4 hPa
Previous

3 hours ago

KSNS 222353Z 30010KT 10SM CLR 13/M04 A3012 RMK AO2 SLP209 T01281039 10144 20094 53007
Observed
Feb-22 @ 23:53 UTC
Wind
  • 300° at 10 KTS
Visibility
10 SM
Flight Rules
VFR
Cloud Levels
  • Clear skies
Temperature
13°C / 55°F
Dewpoint
-4°C / 25°F
Humidity
31%
Altimeter
30.12" Hg
Pressure
1020.9 hPa